sensor_id;sensor_type;location;lat;lon;timestamp;pressure;altitude;pressure_sealevel;temperature
70819;BMP280;58439;51.046;13.692;2023-05-16T00:00:19;99440.44;;;13.15
70819;BMP280;58439;51.046;13.692;2023-05-16T00:02:47;99448.31;;;13.15
70819;BMP280;58439;51.046;13.692;2023-05-16T00:05:14;99453.34;;;13.05
70819;BMP280;58439;51.046;13.692;2023-05-16T00:07:44;99463.84;;;13.05
70819;BMP280;58439;51.046;13.692;2023-05-16T00:10:12;99462.88;;;12.99
70819;BMP280;58439;51.046;13.692;2023-05-16T00:12:39;99465.03;;;12.91
70819;BMP280;58439;51.046;13.692;2023-05-16T00:15:10;99461.25;;;12.87
70819;BMP280;58439;51.046;13.692;2023-05-16T00:17:41;99458.47;;;12.82
70819;BMP280;58439;51.046;13.692;2023-05-16T00:20:13;99464.78;;;12.92
70819;BMP280;58439;51.046;13.692;2023-05-16T00:22:40;99467.72;;;12.84
70819;BMP280;58439;51.046;13.692;2023-05-16T00:25:08;99471.44;;;12.77
70819;BMP280;58439;51.046;13.692;2023-05-16T00:27:35;99462.44;;;12.72
70819;BMP280;58439;51.046;13.692;2023-05-16T00:30:03;99467.81;;;12.78
70819;BMP280;58439;51.046;13.692;2023-05-16T00:32:31;99465.31;;;12.83
70819;BMP280;58439;51.046;13.692;2023-05-16T00:34:59;99465.91;;;12.85
70819;BMP280;58439;51.046;13.692;2023-05-16T00:37:27;99469.28;;;12.73
70819;BMP280;58439;51.046;13.692;2023-05-16T00:39:54;99462.34;;;12.79
70819;BMP280;58439;51.046;13.692;2023-05-16T00:42:21;99481.63;;;12.73
70819;BMP280;58439;51.046;13.692;2023-05-16T00:44:48;99470.16;;;12.67
70819;BMP280;58439;51.046;13.692;2023-05-16T00:47:15;99471.91;;;12.55
70819;BMP280;58439;51.046;13.692;2023-05-16T00:49:42;99478.03;;;12.49
70819;BMP280;58439;51.046;13.692;2023-05-16T00:52:10;99479.84;;;12.49
70819;BMP280;58439;51.046;13.692;2023-05-16T00:54:39;99475.72;;;12.59
70819;BMP280;58439;51.046;13.692;2023-05-16T00:57:06;99480.16;;;12.59
70819;BMP280;58439;51.046;13.692;2023-05-16T00:59:35;99486.63;;;12.56
70819;BMP280;58439;51.046;13.692;2023-05-16T01:02:02;99491.88;;;12.56
70819;BMP280;58439;51.046;13.692;2023-05-16T01:04:31;99489.13;;;12.51
70819;BMP280;58439;51.046;13.692;2023-05-16T01:07:00;99491.38;;;12.48
70819;BMP280;58439;51.046;13.692;2023-05-16T01:09:28;99487.53;;;12.50
70819;BMP280;58439;51.046;13.692;2023-05-16T01:12:10;99493.78;;;12.49
70819;BMP280;58439;51.046;13.692;2023-05-16T01:15:08;99483.16;;;12.44
70819;BMP280;58439;51.046;13.692;2023-05-16T01:18:14;99485.84;;;12.37
70819;BMP280;58439;51.046;13.692;2023-05-16T01:21:10;99496.50;;;12.42
70819;BMP280;58439;51.046;13.692;2023-05-16T01:24:03;99499.78;;;12.38
70819;BMP280;58439;51.046;13.692;2023-05-16T01:26:35;99505.31;;;12.30
70819;BMP280;58439;51.046;13.692;2023-05-16T01:29:03;99505.56;;;12.22
70819;BMP280;58439;51.046;13.692;2023-05-16T01:31:30;99508.03;;;12.16
70819;BMP280;58439;51.046;13.692;2023-05-16T01:33:57;99507.72;;;12.06
70819;BMP280;58439;51.046;13.692;2023-05-16T01:42:18;99519.56;;;11.91
70819;BMP280;58439;51.046;13.692;2023-05-16T01:45:23;99523.00;;;11.84
70819;BMP280;58439;51.046;13.692;2023-05-16T01:48:07;99520.44;;;11.78
70819;BMP280;58439;51.046;13.692;2023-05-16T01:50:48;99520.69;;;11.70
70819;BMP280;58439;51.046;13.692;2023-05-16T01:53:34;99535.25;;;11.66
70819;BMP280;58439;51.046;13.692;2023-05-16T01:56:04;99522.94;;;11.66
70819;BMP280;58439;51.046;13.692;2023-05-16T01:58:36;99534.22;;;11.67
70819;BMP280;58439;51.046;13.692;2023-05-16T02:01:04;99541.88;;;11.68
70819;BMP280;58439;51.046;13.692;2023-05-16T02:03:33;99545.16;;;11.64
70819;BMP280;58439;51.046;13.692;2023-05-16T02:06:00;99549.63;;;11.56
70819;BMP280;58439;51.046;13.692;2023-05-16T02:08:28;99553.44;;;11.54
70819;BMP280;58439;51.046;13.692;2023-05-16T02:10:55;99549.22;;;11.53
70819;BMP280;58439;51.046;13.692;2023-05-16T02:13:22;99548.59;;;11.57
70819;BMP280;58439;51.046;13.692;2023-05-16T02:15:50;99547.94;;;11.62
70819;BMP280;58439;51.046;13.692;2023-05-16T02:18:18;99538.63;;;11.66
70819;BMP280;58439;51.046;13.692;2023-05-16T02:20:46;99545.06;;;11.70
70819;BMP280;58439;51.046;13.692;2023-05-16T02:23:14;99537.97;;;11.77
70819;BMP280;58439;51.046;13.692;2023-05-16T02:25:42;99549.31;;;11.96
70819;BMP280;58439;51.046;13.692;2023-05-16T02:28:09;99544.22;;;12.08
70819;BMP280;58439;51.046;13.692;2023-05-16T02:30:36;99543.34;;;12.14
70819;BMP280;58439;51.046;13.692;2023-05-16T02:33:04;99539.84;;;12.20
70819;BMP280;58439;51.046;13.692;2023-05-16T02:35:31;99548.53;;;12.21
70819;BMP280;58439;51.046;13.692;2023-05-16T02:37:59;99550.56;;;12.19
70819;BMP280;58439;51.046;13.692;2023-05-16T02:40:26;99555.38;;;12.22
70819;BMP280;58439;51.046;13.692;2023-05-16T02:42:53;99559.75;;;12.28
70819;BMP280;58439;51.046;13.692;2023-05-16T02:45:20;99565.16;;;12.33
70819;BMP280;58439;51.046;13.692;2023-05-16T02:47:47;99564.97;;;12.34
70819;BMP280;58439;51.046;13.692;2023-05-16T02:50:14;99562.78;;;12.31
70819;BMP280;58439;51.046;13.692;2023-05-16T02:52:44;99564.41;;;12.26
70819;BMP280;58439;51.046;13.692;2023-05-16T02:55:12;99564.88;;;12.23
70819;BMP280;58439;51.046;13.692;2023-05-16T02:57:44;99568.06;;;12.25
70819;BMP280;58439;51.046;13.692;2023-05-16T03:00:19;99572.50;;;12.24
70819;BMP280;58439;51.046;13.692;2023-05-16T03:02:47;99576.97;;;12.24
70819;BMP280;58439;51.046;13.692;2023-05-16T03:05:17;99575.34;;;12.23
70819;BMP280;58439;51.046;13.692;2023-05-16T03:07:45;99585.22;;;12.21
70819;BMP280;58439;51.046;13.692;2023-05-16T03:15:17;99596.25;;;12.29
70819;BMP280;58439;51.046;13.692;2023-05-16T03:21:54;99606.03;;;12.40
70819;BMP280;58439;51.046;13.692;2023-05-16T03:24:56;99610.06;;;12.43
70819;BMP280;58439;51.046;13.692;2023-05-16T03:28:21;99611.63;;;12.51
70819;BMP280;58439;51.046;13.692;2023-05-16T03:32:23;99617.00;;;12.56
70819;BMP280;58439;51.046;13.692;2023-05-16T03:35:34;99624.22;;;12.60
70819;BMP280;58439;51.046;13.692;2023-05-16T03:44:21;99625.84;;;12.61
70819;BMP280;58439;51.046;13.692;2023-05-16T03:48:56;99640.34;;;12.64
70819;BMP280;58439;51.046;13.692;2023-05-16T03:52:58;99642.38;;;12.62
70819;BMP280;58439;51.046;13.692;2023-05-16T03:55:39;99643.56;;;12.66
70819;BMP280;58439;51.046;13.692;2023-05-16T03:58:07;99650.97;;;12.69
70819;BMP280;58439;51.046;13.692;2023-05-16T04:00:34;99646.56;;;12.69
70819;BMP280;58439;51.046;13.692;2023-05-16T04:04:00;99648.81;;;12.84
70819;BMP280;58439;51.046;13.692;2023-05-16T04:06:27;99661.88;;;12.91
70819;BMP280;58439;51.046;13.692;2023-05-16T04:08:58;99654.38;;;12.94
70819;BMP280;58439;51.046;13.692;2023-05-16T04:11:36;99666.13;;;12.92
70819;BMP280;58439;51.046;13.692;2023-05-16T04:14:04;99674.22;;;12.90
70819;BMP280;58439;51.046;13.692;2023-05-16T04:16:31;99680.47;;;12.89
70819;BMP280;58439;51.046;13.692;2023-05-16T04:19:30;99678.00;;;12.94
70819;BMP280;58439;51.046;13.692;2023-05-16T04:23:02;99683.63;;;12.98
70819;BMP280;58439;51.046;13.692;2023-05-16T04:33:49;99697.50;;;13.05
70819;BMP280;58439;51.046;13.692;2023-05-16T04:37:19;99701.72;;;13.06
70819;BMP280;58439;51.046;13.692;2023-05-16T04:41:00;99717.84;;;13.10
70819;BMP280;58439;51.046;13.692;2023-05-16T04:49:12;99720.25;;;13.11
70819;BMP280;58439;51.046;13.692;2023-05-16T04:51:40;99721.84;;;13.12
70819;BMP280;58439;51.046;13.692;2023-05-16T04:54:07;99712.97;;;13.13
70819;BMP280;58439;51.046;13.692;2023-05-16T04:56:35;99708.53;;;13.14
70819;BMP280;58439;51.046;13.692;2023-05-16T04:59:02;99714.31;;;13.16
70819;BMP280;58439;51.046;13.692;2023-05-16T05:01:30;99719.06;;;13.07
70819;BMP280;58439;51.046;13.692;2023-05-16T05:03:57;99730.00;;;13.04
70819;BMP280;58439;51.046;13.692;2023-05-16T05:06:25;99735.06;;;13.06
70819;BMP280;58439;51.046;13.692;2023-05-16T05:08:52;99736.16;;;12.98
70819;BMP280;58439;51.046;13.692;2023-05-16T05:11:20;99738.22;;;12.89
70819;BMP280;58439;51.046;13.692;2023-05-16T05:13:48;99747.72;;;12.90
70819;BMP280;58439;51.046;13.692;2023-05-16T05:16:18;99752.44;;;12.82
70819;BMP280;58439;51.046;13.692;2023-05-16T05:18:46;99751.09;;;12.72
70819;BMP280;58439;51.046;13.692;2023-05-16T05:21:13;99752.09;;;12.71
70819;BMP280;58439;51.046;13.692;2023-05-16T05:23:40;99757.75;;;12.68
70819;BMP280;58439;51.046;13.692;2023-05-16T05:26:07;99760.03;;;12.65
70819;BMP280;58439;51.046;13.692;2023-05-16T05:28:35;99754.19;;;12.63
70819;BMP280;58439;51.046;13.692;2023-05-16T05:31:04;99763.00;;;12.68
70819;BMP280;58439;51.046;13.692;2023-05-16T05:33:31;99768.25;;;12.68
70819;BMP280;58439;51.046;13.692;2023-05-16T05:35:58;99771.59;;;12.57
70819;BMP280;58439;51.046;13.692;2023-05-16T05:38:28;99766.78;;;12.48
70819;BMP280;58439;51.046;13.692;2023-05-16T05:40:55;99769.84;;;12.44
70819;BMP280;58439;51.046;13.692;2023-05-16T05:43:22;99781.63;;;12.35
70819;BMP280;58439;51.046;13.692;2023-05-16T05:45:50;99783.69;;;12.27
70819;BMP280;58439;51.046;13.692;2023-05-16T05:48:17;99785.13;;;12.23
70819;BMP280;58439;51.046;13.692;2023-05-16T05:50:44;99786.34;;;12.13
70819;BMP280;58439;51.046;13.692;2023-05-16T05:53:11;99784.91;;;12.24
70819;BMP280;58439;51.046;13.692;2023-05-16T05:55:38;99792.50;;;12.32
70819;BMP280;58439;51.046;13.692;2023-05-16T05:58:08;99778.97;;;12.42
70819;BMP280;58439;51.046;13.692;2023-05-16T06:00:35;99787.34;;;12.57
70819;BMP280;58439;51.046;13.692;2023-05-16T06:03:02;99798.00;;;12.62
70819;BMP280;58439;51.046;13.692;2023-05-16T06:05:29;99803.69;;;12.59
70819;BMP280;58439;51.046;13.692;2023-05-16T06:07:57;99799.63;;;12.57
70819;BMP280;58439;51.046;13.692;2023-05-16T06:10:24;99798.00;;;12.62
70819;BMP280;58439;51.046;13.692;2023-05-16T06:12:51;99801.66;;;12.55
70819;BMP280;58439;51.046;13.692;2023-05-16T06:15:51;99816.91;;;12.33
70819;BMP280;58439;51.046;13.692;2023-05-16T06:18:37;99825.09;;;12.11
70819;BMP280;58439;51.046;13.692;2023-05-16T06:21:04;99835.41;;;12.06
70819;BMP280;58439;51.046;13.692;2023-05-16T06:23:32;99838.84;;;12.00
70819;BMP280;58439;51.046;13.692;2023-05-16T06:25:59;99843.13;;;11.95
70819;BMP280;58439;51.046;13.692;2023-05-16T06:28:28;99836.84;;;12.02
70819;BMP280;58439;51.046;13.692;2023-05-16T06:30:56;99835.41;;;12.00
70819;BMP280;58439;51.046;13.692;2023-05-16T06:33:23;99842.88;;;11.96
70819;BMP280;58439;51.046;13.692;2023-05-16T06:35:51;99837.66;;;11.89
70819;BMP280;58439;51.046;13.692;2023-05-16T06:38:19;99829.66;;;11.71
70819;BMP280;58439;51.046;13.692;2023-05-16T06:40:46;99845.78;;;11.68
70819;BMP280;58439;51.046;13.692;2023-05-16T06:43:13;99841.38;;;11.55
70819;BMP280;58439;51.046;13.692;2023-05-16T06:45:43;99838.53;;;11.57
70819;BMP280;58439;51.046;13.692;2023-05-16T06:48:13;99847.00;;;11.52
70819;BMP280;58439;51.046;13.692;2023-05-16T06:50:51;99846.00;;;11.47
70819;BMP280;58439;51.046;13.692;2023-05-16T06:53:21;99848.22;;;11.50
70819;BMP280;58439;51.046;13.692;2023-05-16T06:55:51;99854.47;;;11.55
70819;BMP280;58439;51.046;13.692;2023-05-16T06:58:18;99847.41;;;11.49
70819;BMP280;58439;51.046;13.692;2023-05-16T07:00:48;99852.25;;;11.52
70819;BMP280;58439;51.046;13.692;2023-05-16T07:03:16;99841.16;;;11.57
70819;BMP280;58439;51.046;13.692;2023-05-16T07:05:43;99833.47;;;11.62
70819;BMP280;58439;51.046;13.692;2023-05-16T07:13:13;99860.50;;;11.63
70819;BMP280;58439;51.046;13.692;2023-05-16T07:21:09;99866.13;;;11.59
70819;BMP280;58439;51.046;13.692;2023-05-16T07:24:02;99855.91;;;11.51
70819;BMP280;58439;51.046;13.692;2023-05-16T07:26:51;99859.09;;;11.40
70819;BMP280;58439;51.046;13.692;2023-05-16T07:30:43;99861.53;;;11.35
70819;BMP280;58439;51.046;13.692;2023-05-16T07:34:08;99868.41;;;11.43
70819;BMP280;58439;51.046;13.692;2023-05-16T07:37:34;99871.00;;;11.43
70819;BMP280;58439;51.046;13.692;2023-05-16T07:40:44;99860.72;;;11.35
70819;BMP280;58439;51.046;13.692;2023-05-16T07:43:12;99862.09;;;11.30
70819;BMP280;58439;51.046;13.692;2023-05-16T07:45:51;99873.63;;;11.43
70819;BMP280;58439;51.046;13.692;2023-05-16T07:48:28;99878.84;;;11.49
70819;BMP280;58439;51.046;13.692;2023-05-16T07:51:32;99876.81;;;11.45
70819;BMP280;58439;51.046;13.692;2023-05-16T07:54:30;99869.59;;;11.27
70819;BMP280;58439;51.046;13.692;2023-05-16T07:58:26;99885.09;;;11.28
70819;BMP280;58439;51.046;13.692;2023-05-16T08:06:29;99882.06;;;11.25
70819;BMP280;58439;51.046;13.692;2023-05-16T08:09:06;99882.88;;;11.25
70819;BMP280;58439;51.046;13.692;2023-05-16T08:12:27;99887.31;;;11.31
70819;BMP280;58439;51.046;13.692;2023-05-16T08:15:32;99895.97;;;11.25
70819;BMP280;58439;51.046;13.692;2023-05-16T08:18:47;99903.44;;;11.28
70819;BMP280;58439;51.046;13.692;2023-05-16T08:21:37;99911.50;;;11.27
70819;BMP280;58439;51.046;13.692;2023-05-16T08:24:38;99920.91;;;11.21
70819;BMP280;58439;51.046;13.692;2023-05-16T08:28:15;99916.91;;;11.25
70819;BMP280;58439;51.046;13.692;2023-05-16T08:31:24;99918.91;;;11.30
70819;BMP280;58439;51.046;13.692;2023-05-16T08:34:17;99912.69;;;11.31
70819;BMP280;58439;51.046;13.692;2023-05-16T08:37:36;99927.56;;;11.37
70819;BMP280;58439;51.046;13.692;2023-05-16T08:40:39;99929.00;;;11.46
70819;BMP280;58439;51.046;13.692;2023-05-16T08:44:18;99940.53;;;11.58
70819;BMP280;58439;51.046;13.692;2023-05-16T08:51:38;99936.66;;;11.54
70819;BMP280;58439;51.046;13.692;2023-05-16T08:54:15;99944.31;;;11.49
70819;BMP280;58439;51.046;13.692;2023-05-16T08:56:52;99944.72;;;11.59
70819;BMP280;58439;51.046;13.692;2023-05-16T08:59:20;99953.63;;;11.58
70819;BMP280;58439;51.046;13.692;2023-05-16T09:01:58;99952.56;;;11.53
70819;BMP280;58439;51.046;13.692;2023-05-16T09:05:01;99952.81;;;11.51
70819;BMP280;58439;51.046;13.692;2023-05-16T09:07:54;99949.16;;;11.59
70819;BMP280;58439;51.046;13.692;2023-05-16T09:11:21;99939.28;;;11.54
70819;BMP280;58439;51.046;13.692;2023-05-16T09:14:01;99955.81;;;11.55
70819;BMP280;58439;51.046;13.692;2023-05-16T09:16:44;99955.81;;;11.55
70819;BMP280;58439;51.046;13.692;2023-05-16T09:19:12;99960.06;;;11.56
70819;BMP280;58439;51.046;13.692;2023-05-16T09:22:15;99958.63;;;11.53
70819;BMP280;58439;51.046;13.692;2023-05-16T09:24:44;99955.81;;;11.55
70819;BMP280;58439;51.046;13.692;2023-05-16T09:27:14;99961.06;;;11.68
70819;BMP280;58439;51.046;13.692;2023-05-16T09:29:43;99967.91;;;11.76
70819;BMP280;58439;51.046;13.692;2023-05-16T09:32:53;99973.75;;;11.84
70819;BMP280;58439;51.046;13.692;2023-05-16T09:35:55;99980.44;;;11.87
70819;BMP280;58439;51.046;13.692;2023-05-16T09:38:32;99986.84;;;11.91
70819;BMP280;58439;51.046;13.692;2023-05-16T09:41:04;99982.44;;;11.92
70819;BMP280;58439;51.046;13.692;2023-05-16T09:43:46;99987.25;;;12.08
70819;BMP280;58439;51.046;13.692;2023-05-16T09:46:25;99985.03;;;12.18
70819;BMP280;58439;51.046;13.692;2023-05-16T09:49:13;99989.03;;;12.21
70819;BMP280;58439;51.046;13.692;2023-05-16T09:52:12;99988.22;;;12.13
70819;BMP280;58439;51.046;13.692;2023-05-16T09:55:09;99996.72;;;12.22
70819;BMP280;58439;51.046;13.692;2023-05-16T09:59:13;100005.34;;;12.36
70819;BMP280;58439;51.046;13.692;2023-05-16T10:04:27;99998.63;;;12.60
70819;BMP280;58439;51.046;13.692;2023-05-16T10:13:04;100004.09;;;12.58
70819;BMP280;58439;51.046;13.692;2023-05-16T10:15:36;99999.88;;;12.51
70819;BMP280;58439;51.046;13.692;2023-05-16T10:18:21;100002.53;;;12.44
70819;BMP280;58439;51.046;13.692;2023-05-16T10:20:53;100001.94;;;12.42
70819;BMP280;58439;51.046;13.692;2023-05-16T10:23:53;100001.50;;;12.52
70819;BMP280;58439;51.046;13.692;2023-05-16T10:26:46;100009.75;;;12.49
70819;BMP280;58439;51.046;13.692;2023-05-16T10:43:56;99995.28;;;12.26
70819;BMP280;58439;51.046;13.692;2023-05-16T10:46:28;100004.16;;;12.25
70819;BMP280;58439;51.046;13.692;2023-05-16T10:48:56;99999.75;;;12.19
70819;BMP280;58439;51.046;13.692;2023-05-16T10:51:37;99995.72;;;12.16
70819;BMP280;58439;51.046;13.692;2023-05-16T10:54:10;99998.91;;;12.25
70819;BMP280;58439;51.046;13.692;2023-05-16T10:57:29;99993.25;;;12.41
70819;BMP280;58439;51.046;13.692;2023-05-16T11:01:34;99992.72;;;12.78
70819;BMP280;58439;51.046;13.692;2023-05-16T11:08:30;99985.84;;;13.46
70819;BMP280;58439;51.046;13.692;2023-05-16T11:19:44;100008.44;;;13.54
70819;BMP280;58439;51.046;13.692;2023-05-16T11:22:27;99994.81;;;13.39
70819;BMP280;58439;51.046;13.692;2023-05-16T11:25:01;99998.47;;;13.38
70819;BMP280;58439;51.046;13.692;2023-05-16T11:27:31;99989.38;;;13.34
70819;BMP280;58439;51.046;13.692;2023-05-16T11:32:41;99993.38;;;13.36
70819;BMP280;58439;51.046;13.692;2023-05-16T11:35:14;99981.78;;;13.25
70819;BMP280;58439;51.046;13.692;2023-05-16T11:37:44;99980.66;;;13.40
70819;BMP280;58439;51.046;13.692;2023-05-16T11:40:20;99971.47;;;13.74
70819;BMP280;58439;51.046;13.692;2023-05-16T11:53:56;99970.19;;;16.50
70819;BMP280;58439;51.046;13.692;2023-05-16T12:01:48;99972.19;;;16.43
70819;BMP280;58439;51.046;13.692;2023-05-16T12:05:23;99967.91;;;16.13
70819;BMP280;58439;51.046;13.692;2023-05-16T12:08:50;99963.94;;;15.87
70819;BMP280;58439;51.046;13.692;2023-05-16T12:11:18;99967.28;;;15.59
70819;BMP280;58439;51.046;13.692;2023-05-16T12:13:45;99956.13;;;15.34
70819;BMP280;58439;51.046;13.692;2023-05-16T12:16:13;99961.59;;;15.09
70819;BMP280;58439;51.046;13.692;2023-05-16T12:18:41;99964.00;;;14.99
70819;BMP280;58439;51.046;13.692;2023-05-16T12:21:09;99963.38;;;14.97
70819;BMP280;58439;51.046;13.692;2023-05-16T12:23:37;99963.22;;;14.80
70819;BMP280;58439;51.046;13.692;2023-05-16T12:26:04;99966.03;;;14.67
70819;BMP280;58439;51.046;13.692;2023-05-16T12:28:33;99978.78;;;14.52
70819;BMP280;58439;51.046;13.692;2023-05-16T12:31:01;99982.41;;;14.51
70819;BMP280;58439;51.046;13.692;2023-05-16T12:33:28;99975.41;;;14.63
70819;BMP280;58439;51.046;13.692;2023-05-16T12:35:57;99975.25;;;14.76
70819;BMP280;58439;51.046;13.692;2023-05-16T12:38:27;99981.25;;;14.95
70819;BMP280;58439;51.046;13.692;2023-05-16T12:40:57;99978.75;;;15.12
70819;BMP280;58439;51.046;13.692;2023-05-16T12:43:25;99978.41;;;15.08
70819;BMP280;58439;51.046;13.692;2023-05-16T12:45:55;99987.00;;;15.03
70819;BMP280;58439;51.046;13.692;2023-05-16T12:48:32;99987.31;;;14.95
70819;BMP280;58439;51.046;13.692;2023-05-16T12:51:16;99988.41;;;14.88
70819;BMP280;58439;51.046;13.692;2023-05-16T12:53:46;99984.84;;;14.82
70819;BMP280;58439;51.046;13.692;2023-05-16T12:56:40;99986.00;;;14.56
70819;BMP280;58439;51.046;13.692;2023-05-16T12:59:07;99991.75;;;14.46
70819;BMP280;58439;51.046;13.692;2023-05-16T13:01:35;99999.91;;;14.45
70819;BMP280;58439;51.046;13.692;2023-05-16T13:04:03;100008.22;;;14.42
70819;BMP280;58439;51.046;13.692;2023-05-16T13:06:31;100005.25;;;14.57
70819;BMP280;58439;51.046;13.692;2023-05-16T13:09:18;100012.41;;;14.68
70819;BMP280;58439;51.046;13.692;2023-05-16T13:11:45;100011.25;;;14.45
70819;BMP280;58439;51.046;13.692;2023-05-16T13:14:13;100027.09;;;14.21
70819;BMP280;58439;51.046;13.692;2023-05-16T13:16:50;100017.03;;;14.11
70819;BMP280;58439;51.046;13.692;2023-05-16T13:19:23;100020.06;;;13.96
70819;BMP280;58439;51.046;13.692;2023-05-16T13:21:51;100015.75;;;14.02
70819;BMP280;58439;51.046;13.692;2023-05-16T13:24:26;100019.66;;;14.11
70819;BMP280;58439;51.046;13.692;2023-05-16T13:26:59;100028.25;;;14.25
70819;BMP280;58439;51.046;13.692;2023-05-16T13:29:27;100024.91;;;14.36
70819;BMP280;58439;51.046;13.692;2023-05-16T13:31:55;100032.22;;;14.52
70819;BMP280;58439;51.046;13.692;2023-05-16T13:34:22;100022.03;;;14.74
70819;BMP280;58439;51.046;13.692;2023-05-16T13:36:49;100030.84;;;14.98
70819;BMP280;58439;51.046;13.692;2023-05-16T13:39:21;100029.31;;;15.20
70819;BMP280;58439;51.046;13.692;2023-05-16T13:41:48;100033.03;;;15.31
70819;BMP280;58439;51.046;13.692;2023-05-16T13:44:16;100025.31;;;15.29
70819;BMP280;58439;51.046;13.692;2023-05-16T13:46:47;100032.06;;;15.25
70819;BMP280;58439;51.046;13.692;2023-05-16T13:49:14;100028.94;;;15.17
70819;BMP280;58439;51.046;13.692;2023-05-16T13:51:45;100019.19;;;15.17
70819;BMP280;58439;51.046;13.692;2023-05-16T13:54:42;100026.91;;;15.19
70819;BMP280;58439;51.046;13.692;2023-05-16T13:57:26;100028.06;;;15.23
70819;BMP280;58439;51.046;13.692;2023-05-16T14:00:44;100034.84;;;15.30
70819;BMP280;58439;51.046;13.692;2023-05-16T14:04:22;100020.91;;;15.12
70819;BMP280;58439;51.046;13.692;2023-05-16T14:07:43;100016.91;;;14.79
70819;BMP280;58439;51.046;13.692;2023-05-16T14:10:53;100017.78;;;14.73
70819;BMP280;58439;51.046;13.692;2023-05-16T14:23:06;100016.66;;;14.32
70819;BMP280;58439;51.046;13.692;2023-05-16T14:26:06;100014.97;;;14.20
70819;BMP280;58439;51.046;13.692;2023-05-16T14:37:49;100021.72;;;13.27
70819;BMP280;58439;51.046;13.692;2023-05-16T14:41:54;100023.06;;;13.12
70819;BMP280;58439;51.046;13.692;2023-05-16T14:44:45;100022.88;;;13.13
70819;BMP280;58439;51.046;13.692;2023-05-16T14:47:27;100033.78;;;13.10
70819;BMP280;58439;51.046;13.692;2023-05-16T14:50:18;100040.63;;;13.11
70819;BMP280;58439;51.046;13.692;2023-05-16T14:52:45;100049.94;;;13.14
70819;BMP280;58439;51.046;13.692;2023-05-16T14:55:13;100047.72;;;13.11
70819;BMP280;58439;51.046;13.692;2023-05-16T14:57:40;100049.38;;;13.05
70819;BMP280;58439;51.046;13.692;2023-05-16T15:00:23;100054.16;;;13.08
70819;BMP280;58439;51.046;13.692;2023-05-16T15:02:51;100064.09;;;13.06
70819;BMP280;58439;51.046;13.692;2023-05-16T15:05:19;100065.06;;;13.12
70819;BMP280;58439;51.046;13.692;2023-05-16T15:07:53;100064.25;;;13.18
70819;BMP280;58439;51.046;13.692;2023-05-16T15:10:36;100063.59;;;13.22
70819;BMP280;58439;51.046;13.692;2023-05-16T15:13:10;100074.09;;;13.29
70819;BMP280;58439;51.046;13.692;2023-05-16T15:15:37;100066.63;;;13.33
70819;BMP280;58439;51.046;13.692;2023-05-16T15:18:18;100063.34;;;13.37
70819;BMP280;58439;51.046;13.692;2023-05-16T15:20:48;100071.16;;;13.44
70819;BMP280;58439;51.046;13.692;2023-05-16T15:23:15;100060.47;;;13.45
70819;BMP280;58439;51.046;13.692;2023-05-16T15:25:42;100060.28;;;13.40
70819;BMP280;58439;51.046;13.692;2023-05-16T15:28:09;100059.03;;;13.43
70819;BMP280;58439;51.046;13.692;2023-05-16T15:30:40;100059.00;;;13.49
70819;BMP280;58439;51.046;13.692;2023-05-16T15:33:07;100053.75;;;13.49
70819;BMP280;58439;51.046;13.692;2023-05-16T15:35:35;100046.47;;;13.51
70819;BMP280;58439;51.046;13.692;2023-05-16T15:38:33;100055.47;;;13.62
70819;BMP280;58439;51.046;13.692;2023-05-16T15:42:28;100050.88;;;13.82
70819;BMP280;58439;51.046;13.692;2023-05-16T15:50:48;100046.03;;;16.14
70819;BMP280;58439;51.046;13.692;2023-05-16T15:53:16;100044.72;;;16.52
70819;BMP280;58439;51.046;13.692;2023-05-16T15:55:45;100045.25;;;16.66
70819;BMP280;58439;51.046;13.692;2023-05-16T15:58:24;100047.28;;;16.35
70819;BMP280;58439;51.046;13.692;2023-05-16T16:00:51;100042.72;;;15.95
70819;BMP280;58439;51.046;13.692;2023-05-16T16:03:22;100051.06;;;15.57
70819;BMP280;58439;51.046;13.692;2023-05-16T16:06:12;100048.00;;;15.19
70819;BMP280;58439;51.046;13.692;2023-05-16T16:08:58;100038.72;;;14.86
70819;BMP280;58439;51.046;13.692;2023-05-16T16:26:48;100028.22;;;15.28
70819;BMP280;58439;51.046;13.692;2023-05-16T16:29:57;100023.38;;;15.25
70819;BMP280;58439;51.046;13.692;2023-05-16T16:34:06;100028.59;;;15.43
70819;BMP280;58439;51.046;13.692;2023-05-16T16:37:39;100032.81;;;15.44
70819;BMP280;58439;51.046;13.692;2023-05-16T16:41:18;100026.78;;;15.55
70819;BMP280;58439;51.046;13.692;2023-05-16T16:46:50;100042.81;;;15.54
70819;BMP280;58439;51.046;13.692;2023-05-16T16:49:52;100042.16;;;15.82
70819;BMP280;58439;51.046;13.692;2023-05-16T16:52:57;100051.56;;;16.24
70819;BMP280;58439;51.046;13.692;2023-05-16T16:56:01;100052.16;;;17.40
70819;BMP280;58439;51.046;13.692;2023-05-16T16:59:10;100051.34;;;18.83
70819;BMP280;58439;51.046;13.692;2023-05-16T17:02:24;100056.06;;;19.77
70819;BMP280;58439;51.046;13.692;2023-05-16T17:06:03;100053.06;;;18.72
70819;BMP280;58439;51.046;13.692;2023-05-16T17:09:22;100069.84;;;17.57
70819;BMP280;58439;51.046;13.692;2023-05-16T17:16:19;100069.69;;;15.98
70819;BMP280;58439;51.046;13.692;2023-05-16T17:19:44;100073.34;;;15.61
70819;BMP280;58439;51.046;13.692;2023-05-16T17:23:25;100070.13;;;15.29
70819;BMP280;58439;51.046;13.692;2023-05-16T17:25:55;100065.47;;;15.13
70819;BMP280;58439;51.046;13.692;2023-05-16T17:28:22;100065.97;;;15.10
70819;BMP280;58439;51.046;13.692;2023-05-16T17:30:53;100065.06;;;15.58
70819;BMP280;58439;51.046;13.692;2023-05-16T17:33:20;100068.50;;;16.80
70819;BMP280;58439;51.046;13.692;2023-05-16T17:35:47;100068.03;;;17.96
70819;BMP280;58439;51.046;13.692;2023-05-16T17:38:15;100076.91;;;18.23
70819;BMP280;58439;51.046;13.692;2023-05-16T17:41:12;100077.00;;;18.12
70819;BMP280;58439;51.046;13.692;2023-05-16T17:49:30;100072.06;;;17.31
70819;BMP280;58439;51.046;13.692;2023-05-16T17:53:05;100071.91;;;17.71
70819;BMP280;58439;51.046;13.692;2023-05-16T17:56:46;100057.56;;;17.34
70819;BMP280;58439;51.046;13.692;2023-05-16T18:03:41;100076.97;;;17.73